sensor_id;sensor_type;location;lat;lon;timestamp;pressure;altitude;pressure_sealevel;temperature;humidity
52777;BME280;38656;54.260;20.822;2024-03-25T00:01:24;99488.84;;;5.33;100.00
52777;BME280;38656;54.260;20.822;2024-03-25T00:03:50;99483.03;;;5.52;100.00
52777;BME280;38656;54.260;20.822;2024-03-25T00:06:17;99479.53;;;5.29;100.00
52777;BME280;38656;54.260;20.822;2024-03-25T00:08:43;99477.81;;;5.17;100.00
52777;BME280;38656;54.260;20.822;2024-03-25T00:11:09;99472.59;;;4.68;100.00
52777;BME280;38656;54.260;20.822;2024-03-25T00:13:35;99466.59;;;5.03;100.00
52777;BME280;38656;54.260;20.822;2024-03-25T00:16:01;99465.69;;;5.16;100.00
52777;BME280;38656;54.260;20.822;2024-03-25T00:18:27;99463.31;;;5.24;100.00
52777;BME280;38656;54.260;20.822;2024-03-25T00:20:53;99468.00;;;5.31;100.00
52777;BME280;38656;54.260;20.822;2024-03-25T00:23:20;99466.66;;;5.26;100.00
52777;BME280;38656;54.260;20.822;2024-03-25T00:25:46;99468.03;;;5.07;100.00
52777;BME280;38656;54.260;20.822;2024-03-25T00:28:12;99473.03;;;5.10;100.00
52777;BME280;38656;54.260;20.822;2024-03-25T00:30:39;99469.09;;;5.05;100.00
52777;BME280;38656;54.260;20.822;2024-03-25T00:33:05;99478.56;;;4.94;100.00
52777;BME280;38656;54.260;20.822;2024-03-25T00:35:33;99468.47;;;5.01;100.00
52777;BME280;38656;54.260;20.822;2024-03-25T00:37:59;99472.28;;;4.97;100.00
52777;BME280;38656;54.260;20.822;2024-03-25T00:40:26;99477.72;;;4.94;100.00
52777;BME280;38656;54.260;20.822;2024-03-25T00:42:52;99475.81;;;4.35;100.00
52777;BME280;38656;54.260;20.822;2024-03-25T00:45:18;99460.69;;;4.64;100.00
52777;BME280;38656;54.260;20.822;2024-03-25T00:47:44;99473.19;;;4.72;100.00
52777;BME280;38656;54.260;20.822;2024-03-25T00:50:11;99465.59;;;4.93;100.00
52777;BME280;38656;54.260;20.822;2024-03-25T00:52:37;99469.19;;;5.03;100.00
52777;BME280;38656;54.260;20.822;2024-03-25T00:55:03;99466.47;;;4.81;100.00
52777;BME280;38656;54.260;20.822;2024-03-25T00:57:29;99471.59;;;4.82;100.00
52777;BME280;38656;54.260;20.822;2024-03-25T00:59:56;99466.06;;;4.74;100.00
52777;BME280;38656;54.260;20.822;2024-03-25T01:02:22;99468.13;;;4.82;100.00
52777;BME280;38656;54.260;20.822;2024-03-25T01:04:48;99465.03;;;4.76;100.00
52777;BME280;38656;54.260;20.822;2024-03-25T01:07:14;99456.69;;;4.71;100.00
52777;BME280;38656;54.260;20.822;2024-03-25T01:09:40;99460.28;;;4.82;100.00
52777;BME280;38656;54.260;20.822;2024-03-25T01:12:06;99461.47;;;4.77;100.00
52777;BME280;38656;54.260;20.822;2024-03-25T01:14:32;99462.25;;;4.91;100.00
52777;BME280;38656;54.260;20.822;2024-03-25T01:16:59;99464.88;;;4.91;100.00
52777;BME280;38656;54.260;20.822;2024-03-25T01:19:25;99462.88;;;5.06;100.00
52777;BME280;38656;54.260;20.822;2024-03-25T01:21:51;99467.63;;;5.01;100.00
52777;BME280;38656;54.260;20.822;2024-03-25T01:24:18;99462.03;;;4.94;100.00
52777;BME280;38656;54.260;20.822;2024-03-25T01:26:44;99468.22;;;5.04;100.00
52777;BME280;38656;54.260;20.822;2024-03-25T01:29:10;99459.13;;;4.86;100.00
52777;BME280;38656;54.260;20.822;2024-03-25T01:31:36;99455.28;;;4.78;100.00
52777;BME280;38656;54.260;20.822;2024-03-25T01:34:02;99455.38;;;4.53;100.00
52777;BME280;38656;54.260;20.822;2024-03-25T01:36:28;99454.06;;;4.71;100.00
52777;BME280;38656;54.260;20.822;2024-03-25T01:38:54;99457.09;;;4.65;100.00
52777;BME280;38656;54.260;20.822;2024-03-25T01:41:22;99457.22;;;4.64;100.00
52777;BME280;38656;54.260;20.822;2024-03-25T01:43:51;99456.50;;;4.61;100.00
52777;BME280;38656;54.260;20.822;2024-03-25T01:46:21;99464.66;;;4.20;100.00
52777;BME280;38656;54.260;20.822;2024-03-25T01:48:48;99461.00;;;4.22;100.00
52777;BME280;38656;54.260;20.822;2024-03-25T01:51:17;99461.56;;;4.52;100.00
52777;BME280;38656;54.260;20.822;2024-03-25T01:53:44;99460.09;;;4.48;100.00
52777;BME280;38656;54.260;20.822;2024-03-25T01:56:11;99454.00;;;4.60;100.00
52777;BME280;38656;54.260;20.822;2024-03-25T01:58:38;99460.25;;;4.70;100.00
52777;BME280;38656;54.260;20.822;2024-03-25T02:01:05;99460.81;;;4.50;100.00
52777;BME280;38656;54.260;20.822;2024-03-25T02:03:32;99458.78;;;4.66;100.00
52777;BME280;38656;54.260;20.822;2024-03-25T02:06:06;99461.34;;;4.55;100.00
52777;BME280;38656;54.260;20.822;2024-03-25T02:08:34;99461.94;;;4.58;100.00
52777;BME280;38656;54.260;20.822;2024-03-25T02:11:02;99461.13;;;4.58;100.00
52777;BME280;38656;54.260;20.822;2024-03-25T02:13:28;99461.91;;;4.71;100.00
52777;BME280;38656;54.260;20.822;2024-03-25T02:15:55;99466.13;;;4.61;100.00
52777;BME280;38656;54.260;20.822;2024-03-25T02:18:21;99468.22;;;4.56;100.00
52777;BME280;38656;54.260;20.822;2024-03-25T02:20:47;99471.81;;;4.55;100.00
52777;BME280;38656;54.260;20.822;2024-03-25T02:23:14;99470.94;;;4.54;100.00
52777;BME280;38656;54.260;20.822;2024-03-25T02:25:42;99471.59;;;4.58;100.00
52777;BME280;38656;54.260;20.822;2024-03-25T02:28:09;99466.56;;;4.55;100.00
52777;BME280;38656;54.260;20.822;2024-03-25T02:30:35;99462.78;;;4.83;100.00
52777;BME280;38656;54.260;20.822;2024-03-25T02:33:03;99459.75;;;4.89;100.00
52777;BME280;38656;54.260;20.822;2024-03-25T02:35:29;99469.34;;;4.89;100.00
52777;BME280;38656;54.260;20.822;2024-03-25T02:37:56;99462.66;;;4.85;100.00
52777;BME280;38656;54.260;20.822;2024-03-25T02:40:23;99462.84;;;4.94;100.00
52777;BME280;38656;54.260;20.822;2024-03-25T02:42:49;99470.00;;;4.92;100.00
52777;BME280;38656;54.260;20.822;2024-03-25T02:45:16;99469.13;;;4.92;100.00
52777;BME280;38656;54.260;20.822;2024-03-25T02:47:43;99468.13;;;4.82;100.00
52777;BME280;38656;54.260;20.822;2024-03-25T02:50:09;99474.09;;;4.84;100.00
52777;BME280;38656;54.260;20.822;2024-03-25T02:52:35;99481.59;;;4.64;100.00
52777;BME280;38656;54.260;20.822;2024-03-25T02:55:01;99475.63;;;4.62;100.00
52777;BME280;38656;54.260;20.822;2024-03-25T02:57:27;99474.25;;;4.69;100.00
52777;BME280;38656;54.260;20.822;2024-03-25T02:59:53;99472.78;;;4.65;100.00
52777;BME280;38656;54.260;20.822;2024-03-25T03:02:20;99478.69;;;4.56;100.00
52777;BME280;38656;54.260;20.822;2024-03-25T03:04:46;99482.47;;;4.52;100.00
52777;BME280;38656;54.260;20.822;2024-03-25T03:07:12;99481.88;;;4.35;100.00
52777;BME280;38656;54.260;20.822;2024-03-25T03:09:38;99482.31;;;4.29;100.00
52777;BME280;38656;54.260;20.822;2024-03-25T03:12:04;99476.88;;;4.32;100.00
52777;BME280;38656;54.260;20.822;2024-03-25T03:14:31;99482.31;;;4.29;100.00
52777;BME280;38656;54.260;20.822;2024-03-25T03:16:57;99478.25;;;4.25;100.00
52777;BME280;38656;54.260;20.822;2024-03-25T03:19:31;99485.44;;;4.34;100.00
52777;BME280;38656;54.260;20.822;2024-03-25T03:21:57;99481.88;;;4.35;100.00
52777;BME280;38656;54.260;20.822;2024-03-25T03:24:24;99496.69;;;4.48;100.00
52777;BME280;38656;54.260;20.822;2024-03-25T03:26:50;99489.19;;;4.30;100.00
52777;BME280;38656;54.260;20.822;2024-03-25T03:29:16;99488.25;;;4.31;100.00
52777;BME280;38656;54.260;20.822;2024-03-25T03:31:43;99486.47;;;4.45;100.00
52777;BME280;38656;54.260;20.822;2024-03-25T03:34:09;99488.97;;;4.46;100.00
52777;BME280;38656;54.260;20.822;2024-03-25T03:36:35;99495.22;;;4.43;100.00
52777;BME280;38656;54.260;20.822;2024-03-25T03:39:01;99482.69;;;4.49;100.00
52777;BME280;38656;54.260;20.822;2024-03-25T03:41:29;99490.09;;;4.55;100.00
52777;BME280;38656;54.260;20.822;2024-03-25T03:43:55;99495.16;;;4.69;100.00
52777;BME280;38656;54.260;20.822;2024-03-25T03:46:21;99494.72;;;4.75;100.00
52777;BME280;38656;54.260;20.822;2024-03-25T03:48:47;99499.88;;;4.27;100.00
52777;BME280;38656;54.260;20.822;2024-03-25T03:51:13;99494.78;;;4.63;100.00
52777;BME280;38656;54.260;20.822;2024-03-25T03:53:40;99492.50;;;4.58;100.00
52777;BME280;38656;54.260;20.822;2024-03-25T03:56:06;99497.94;;;4.55;100.00
52777;BME280;38656;54.260;20.822;2024-03-25T03:58:33;99497.06;;;4.67;100.00
52777;BME280;38656;54.260;20.822;2024-03-25T04:01:00;99499.28;;;4.85;100.00
52777;BME280;38656;54.260;20.822;2024-03-25T04:03:26;99498.53;;;4.71;100.00
52777;BME280;38656;54.260;20.822;2024-03-25T04:05:53;99499.09;;;4.88;100.00
52777;BME280;38656;54.260;20.822;2024-03-25T04:08:19;99503.47;;;4.87;100.00
52777;BME280;38656;54.260;20.822;2024-03-25T04:10:46;99497.19;;;4.90;100.00
52777;BME280;38656;54.260;20.822;2024-03-25T04:13:12;99501.66;;;5.01;100.00
52777;BME280;38656;54.260;20.822;2024-03-25T04:15:39;99498.66;;;4.94;100.00
52777;BME280;38656;54.260;20.822;2024-03-25T04:18:06;99501.72;;;4.88;100.00
52777;BME280;38656;54.260;20.822;2024-03-25T04:20:40;99503.22;;;5.03;100.00
52777;BME280;38656;54.260;20.822;2024-03-25T04:23:07;99509.50;;;5.01;100.00
52777;BME280;38656;54.260;20.822;2024-03-25T04:25:33;99503.22;;;5.03;100.00
52777;BME280;38656;54.260;20.822;2024-03-25T04:28:00;99512.09;;;5.25;100.00
52777;BME280;38656;54.260;20.822;2024-03-25T04:30:26;99505.59;;;5.30;100.00
52777;BME280;38656;54.260;20.822;2024-03-25T04:32:53;99508.31;;;5.29;100.00
52777;BME280;38656;54.260;20.822;2024-03-25T04:35:19;99512.22;;;5.23;100.00
52777;BME280;38656;54.260;20.822;2024-03-25T04:37:45;99523.72;;;5.21;100.00
52777;BME280;38656;54.260;20.822;2024-03-25T04:40:12;99517.56;;;5.22;100.00
52777;BME280;38656;54.260;20.822;2024-03-25T04:42:40;99523.69;;;5.09;100.00
52777;BME280;38656;54.260;20.822;2024-03-25T04:45:07;99517.22;;;5.02;100.00
52777;BME280;38656;54.260;20.822;2024-03-25T04:47:33;99521.34;;;5.18;100.00
52777;BME280;38656;54.260;20.822;2024-03-25T04:50:00;99525.72;;;5.30;100.00
52777;BME280;38656;54.260;20.822;2024-03-25T04:52:26;99529.25;;;5.29;100.00
52777;BME280;38656;54.260;20.822;2024-03-25T04:54:52;99521.78;;;5.11;100.00
52777;BME280;38656;54.260;20.822;2024-03-25T04:57:18;99525.47;;;5.33;100.00
52777;BME280;38656;54.260;20.822;2024-03-25T04:59:44;99527.63;;;5.39;100.00
52777;BME280;38656;54.260;20.822;2024-03-25T05:02:11;99527.78;;;5.49;100.00
52777;BME280;38656;54.260;20.822;2024-03-25T05:04:37;99525.28;;;5.47;100.00
52777;BME280;38656;54.260;20.822;2024-03-25T05:07:03;99529.22;;;5.53;100.00
52777;BME280;38656;54.260;20.822;2024-03-25T05:09:29;99534.28;;;5.43;100.00
52777;BME280;38656;54.260;20.822;2024-03-25T05:11:55;99536.94;;;4.95;100.00
52777;BME280;38656;54.260;20.822;2024-03-25T05:14:21;99540.50;;;5.42;100.00
52777;BME280;38656;54.260;20.822;2024-03-25T05:16:47;99542.91;;;5.57;100.00
52777;BME280;38656;54.260;20.822;2024-03-25T05:19:15;99538.59;;;5.44;100.00
52777;BME280;38656;54.260;20.822;2024-03-25T05:21:41;99541.81;;;5.72;100.00
52777;BME280;38656;54.260;20.822;2024-03-25T05:24:07;99545.66;;;5.55;100.00
52777;BME280;38656;54.260;20.822;2024-03-25T05:26:33;99541.50;;;5.53;100.00
52777;BME280;38656;54.260;20.822;2024-03-25T05:29:00;99546.06;;;5.73;100.00
52777;BME280;38656;54.260;20.822;2024-03-25T05:31:26;99546.34;;;5.81;100.00
52777;BME280;38656;54.260;20.822;2024-03-25T05:33:52;99549.44;;;5.75;100.00
52777;BME280;38656;54.260;20.822;2024-03-25T05:36:18;99546.66;;;6.01;100.00
52777;BME280;38656;54.260;20.822;2024-03-25T05:38:45;99544.97;;;6.00;100.00
52777;BME280;38656;54.260;20.822;2024-03-25T05:41:11;99547.66;;;6.34;100.00
52777;BME280;38656;54.260;20.822;2024-03-25T05:43:38;99553.72;;;6.34;100.00
52777;BME280;38656;54.260;20.822;2024-03-25T05:46:04;99556.19;;;6.13;100.00
52777;BME280;38656;54.260;20.822;2024-03-25T05:48:31;99551.44;;;6.30;100.00
52777;BME280;38656;54.260;20.822;2024-03-25T05:51:07;99556.47;;;6.33;100.00
52777;BME280;38656;54.260;20.822;2024-03-25T05:53:36;99556.91;;;6.04;100.00
52777;BME280;38656;54.260;20.822;2024-03-25T05:56:06;99555.25;;;6.14;100.00
52777;BME280;38656;54.260;20.822;2024-03-25T05:58:32;99558.13;;;6.11;100.00
52777;BME280;38656;54.260;20.822;2024-03-25T06:00:58;99565.25;;;6.32;100.00
52777;BME280;38656;54.260;20.822;2024-03-25T06:03:27;99565.28;;;6.43;100.00
52777;BME280;38656;54.260;20.822;2024-03-25T06:05:53;99570.50;;;6.32;100.00
52777;BME280;38656;54.260;20.822;2024-03-25T06:08:19;99572.44;;;6.52;100.00
52777;BME280;38656;54.260;20.822;2024-03-25T06:10:52;99573.38;;;6.40;100.00
52777;BME280;38656;54.260;20.822;2024-03-25T06:13:19;99579.72;;;6.71;100.00
52777;BME280;38656;54.260;20.822;2024-03-25T06:15:46;99581.13;;;6.42;100.00
52777;BME280;38656;54.260;20.822;2024-03-25T06:18:12;99587.59;;;6.49;100.00
52777;BME280;38656;54.260;20.822;2024-03-25T06:20:38;99588.41;;;6.49;100.00
52777;BME280;38656;54.260;20.822;2024-03-25T06:23:05;99590.66;;;6.65;100.00
52777;BME280;38656;54.260;20.822;2024-03-25T06:25:32;99593.91;;;6.69;100.00
52777;BME280;38656;54.260;20.822;2024-03-25T06:27:59;99594.97;;;6.66;100.00
52777;BME280;38656;54.260;20.822;2024-03-25T06:30:25;99594.00;;;6.67;100.00
52777;BME280;38656;54.260;20.822;2024-03-25T06:33:10;99596.41;;;6.70;100.00
52777;BME280;38656;54.260;20.822;2024-03-25T06:35:55;99594.59;;;6.82;100.00
52777;BME280;38656;54.260;20.822;2024-03-25T06:38:21;99605.56;;;6.99;100.00
52777;BME280;38656;54.260;20.822;2024-03-25T06:40:47;99591.91;;;7.16;100.00
52777;BME280;38656;54.260;20.822;2024-03-25T06:43:13;99601.34;;;7.19;100.00
52777;BME280;38656;54.260;20.822;2024-03-25T06:45:42;99597.91;;;7.18;100.00
52777;BME280;38656;54.260;20.822;2024-03-25T06:50:34;99607.88;;;7.36;100.00
52777;BME280;38656;54.260;20.822;2024-03-25T06:53:00;99610.97;;;7.41;100.00
52777;BME280;38656;54.260;20.822;2024-03-25T06:55:27;99609.28;;;7.51;100.00
52777;BME280;38656;54.260;20.822;2024-03-25T06:57:54;99606.81;;;7.71;100.00
52777;BME280;38656;54.260;20.822;2024-03-25T07:00:20;99619.31;;;7.78;100.00
52777;BME280;38656;54.260;20.822;2024-03-25T07:02:48;99612.50;;;7.76;100.00
52777;BME280;38656;54.260;20.822;2024-03-25T07:05:14;99615.72;;;7.79;100.00
52777;BME280;38656;54.260;20.822;2024-03-25T07:07:40;99627.47;;;7.96;100.00
52777;BME280;38656;54.260;20.822;2024-03-25T07:10:07;99623.56;;;8.12;100.00
52777;BME280;38656;54.260;20.822;2024-03-25T07:12:34;99624.25;;;8.14;100.00
52777;BME280;38656;54.260;20.822;2024-03-25T07:15:00;99630.84;;;8.08;100.00
52777;BME280;38656;54.260;20.822;2024-03-25T07:17:26;99628.94;;;7.89;100.00
52777;BME280;38656;54.260;20.822;2024-03-25T07:19:53;99622.34;;;8.16;100.00
52777;BME280;38656;54.260;20.822;2024-03-25T07:22:19;99629.53;;;8.14;100.00
52777;BME280;38656;54.260;20.822;2024-03-25T07:24:45;99631.84;;;8.28;100.00
52777;BME280;38656;54.260;20.822;2024-03-25T07:27:11;99631.00;;;8.49;100.00
52777;BME280;38656;54.260;20.822;2024-03-25T07:29:38;99631.75;;;8.40;100.00
52777;BME280;38656;54.260;20.822;2024-03-25T07:32:05;99638.81;;;8.39;100.00
52777;BME280;38656;54.260;20.822;2024-03-25T07:34:31;99633.06;;;8.45;100.00
52777;BME280;38656;54.260;20.822;2024-03-25T07:36:57;99628.63;;;8.46;100.00
52777;BME280;38656;54.260;20.822;2024-03-25T07:39:23;99633.31;;;8.63;100.00
52777;BME280;38656;54.260;20.822;2024-03-25T07:41:50;99638.25;;;8.36;100.00
52777;BME280;38656;54.260;20.822;2024-03-25T07:44:16;99637.50;;;8.76;100.00
52777;BME280;38656;54.260;20.822;2024-03-25T07:46:42;99634.28;;;8.93;100.00
52777;BME280;38656;54.260;20.822;2024-03-25T07:49:08;99641.97;;;9.16;100.00
52777;BME280;38656;54.260;20.822;2024-03-25T07:51:34;99642.66;;;9.18;100.00
52777;BME280;38656;54.260;20.822;2024-03-25T07:54:05;99650.59;;;9.37;100.00
52777;BME280;38656;54.260;20.822;2024-03-25T07:56:32;99647.00;;;9.38;100.00
52777;BME280;38656;54.260;20.822;2024-03-25T07:59:03;99649.69;;;7.60;100.00
52777;BME280;38656;54.260;20.822;2024-03-25T08:01:30;99645.41;;;8.76;100.00
52777;BME280;38656;54.260;20.822;2024-03-25T08:03:56;99653.28;;;9.47;100.00
52777;BME280;38656;54.260;20.822;2024-03-25T08:06:22;99653.00;;;9.80;100.00
52777;BME280;38656;54.260;20.822;2024-03-25T08:08:48;99656.44;;;8.60;100.00
52777;BME280;38656;54.260;20.822;2024-03-25T08:11:14;99652.06;;;7.31;100.00
52777;BME280;38656;54.260;20.822;2024-03-25T08:13:41;99650.31;;;7.64;100.00
52777;BME280;38656;54.260;20.822;2024-03-25T08:16:07;99663.38;;;7.75;100.00
52777;BME280;38656;54.260;20.822;2024-03-25T08:18:33;99657.22;;;7.97;100.00
52777;BME280;38656;54.260;20.822;2024-03-25T08:21:00;99663.03;;;7.13;100.00
52777;BME280;38656;54.260;20.822;2024-03-25T08:23:26;99660.72;;;8.92;100.00
52777;BME280;38656;54.260;20.822;2024-03-25T08:25:52;99652.09;;;8.38;100.00
52777;BME280;38656;54.260;20.822;2024-03-25T08:28:20;99647.44;;;8.93;100.00
52777;BME280;38656;54.260;20.822;2024-03-25T08:30:47;99653.44;;;10.24;100.00
52777;BME280;38656;54.260;20.822;2024-03-25T08:33:13;99654.66;;;9.71;100.00
52777;BME280;38656;54.260;20.822;2024-03-25T08:35:39;99657.84;;;10.23;100.00
52777;BME280;38656;54.260;20.822;2024-03-25T08:38:05;99650.09;;;10.89;100.00
52777;BME280;38656;54.260;20.822;2024-03-25T08:40:32;99651.75;;;11.18;100.00
52777;BME280;38656;54.260;20.822;2024-03-25T08:42:58;99655.94;;;9.86;100.00
52777;BME280;38656;54.260;20.822;2024-03-25T08:45:25;99652.59;;;10.90;100.00
52777;BME280;38656;54.260;20.822;2024-03-25T08:47:51;99658.91;;;10.70;100.00
52777;BME280;38656;54.260;20.822;2024-03-25T08:50:18;99656.31;;;10.50;100.00
52777;BME280;38656;54.260;20.822;2024-03-25T08:52:44;99665.47;;;11.95;100.00
52777;BME280;38656;54.260;20.822;2024-03-25T08:55:10;99658.09;;;10.97;100.00
52777;BME280;38656;54.260;20.822;2024-03-25T08:57:38;99657.13;;;11.54;100.00
52777;BME280;38656;54.260;20.822;2024-03-25T09:00:04;99674.28;;;9.88;100.00
52777;BME280;38656;54.260;20.822;2024-03-25T09:02:30;99659.69;;;11.81;100.00
52777;BME280;38656;54.260;20.822;2024-03-25T09:04:57;99669.81;;;10.27;100.00
52777;BME280;38656;54.260;20.822;2024-03-25T09:07:23;99666.50;;;10.06;100.00
52777;BME280;38656;54.260;20.822;2024-03-25T09:09:49;99665.75;;;11.00;100.00
52777;BME280;38656;54.260;20.822;2024-03-25T09:12:34;99663.50;;;11.79;100.00
52777;BME280;38656;54.260;20.822;2024-03-25T09:15:00;99669.53;;;10.21;100.00
52777;BME280;38656;54.260;20.822;2024-03-25T09:17:26;99671.13;;;14.64;100.00
52777;BME280;38656;54.260;20.822;2024-03-25T09:19:52;99669.78;;;14.60;100.00
52777;BME280;38656;54.260;20.822;2024-03-25T09:22:18;99664.00;;;15.13;100.00
52777;BME280;38656;54.260;20.822;2024-03-25T09:24:44;99667.41;;;11.29;100.00
52777;BME280;38656;54.260;20.822;2024-03-25T09:27:11;99669.38;;;10.99;100.00
52777;BME280;38656;54.260;20.822;2024-03-25T09:29:37;99661.00;;;11.77;100.00
52777;BME280;38656;54.260;20.822;2024-03-25T09:32:03;99671.63;;;11.49;100.00
52777;BME280;38656;54.260;20.822;2024-03-25T09:34:30;99671.47;;;12.93;100.00
52777;BME280;38656;54.260;20.822;2024-03-25T09:36:56;99673.72;;;13.49;100.00
52777;BME280;38656;54.260;20.822;2024-03-25T09:39:22;99670.88;;;11.75;100.00
52777;BME280;38656;54.260;20.822;2024-03-25T09:41:48;99677.03;;;12.82;100.00
52777;BME280;38656;54.260;20.822;2024-03-25T09:44:18;99665.47;;;14.51;100.00
52777;BME280;38656;54.260;20.822;2024-03-25T09:46:45;99671.22;;;15.98;100.00
52777;BME280;38656;54.260;20.822;2024-03-25T09:49:11;99667.06;;;15.96;100.00
52777;BME280;38656;54.260;20.822;2024-03-25T09:51:37;99682.41;;;14.58;100.00
52777;BME280;38656;54.260;20.822;2024-03-25T09:54:03;99670.91;;;18.02;100.00
52777;BME280;38656;54.260;20.822;2024-03-25T09:56:31;99665.44;;;20.19;100.00
52777;BME280;38656;54.260;20.822;2024-03-25T09:58:58;99666.63;;;19.83;100.00
52777;BME280;38656;54.260;20.822;2024-03-25T10:01:24;99680.53;;;12.83;100.00
52777;BME280;38656;54.260;20.822;2024-03-25T10:03:51;99671.72;;;15.70;100.00
52777;BME280;38656;54.260;20.822;2024-03-25T10:06:17;99668.44;;;15.91;100.00
52777;BME280;38656;54.260;20.822;2024-03-25T10:08:44;99675.19;;;16.02;100.00
52777;BME280;38656;54.260;20.822;2024-03-25T10:11:10;99662.41;;;15.66;100.00
52777;BME280;38656;54.260;20.822;2024-03-25T10:13:37;99661.59;;;16.35;100.00
52777;BME280;38656;54.260;20.822;2024-03-25T10:16:06;99662.28;;;17.27;100.00
52777;BME280;38656;54.260;20.822;2024-03-25T10:18:33;99662.66;;;16.64;100.00
52777;BME280;38656;54.260;20.822;2024-03-25T10:20:59;99666.06;;;18.90;100.00
52777;BME280;38656;54.260;20.822;2024-03-25T10:23:26;99662.53;;;19.80;100.00
52777;BME280;38656;54.260;20.822;2024-03-25T10:25:53;99666.78;;;19.06;100.00
52777;BME280;38656;54.260;20.822;2024-03-25T10:28:19;99672.38;;;21.07;89.66
52777;BME280;38656;54.260;20.822;2024-03-25T10:30:45;99672.50;;;21.77;80.36
52777;BME280;38656;54.260;20.822;2024-03-25T10:33:11;99674.09;;;20.27;90.51
52777;BME280;38656;54.260;20.822;2024-03-25T10:35:39;99679.09;;;16.68;100.00
52777;BME280;38656;54.260;20.822;2024-03-25T10:38:06;99673.25;;;17.54;100.00
52777;BME280;38656;54.260;20.822;2024-03-25T10:40:34;99682.94;;;17.55;100.00
52777;BME280;38656;54.260;20.822;2024-03-25T10:43:03;99676.66;;;19.67;94.41
52777;BME280;38656;54.260;20.822;2024-03-25T10:45:30;99675.75;;;20.28;91.12
52777;BME280;38656;54.260;20.822;2024-03-25T10:48:03;99676.13;;;21.51;78.97
52777;BME280;38656;54.260;20.822;2024-03-25T10:50:30;99682.66;;;21.23;72.14
52777;BME280;38656;54.260;20.822;2024-03-25T10:52:59;99699.19;;;15.31;100.00
52777;BME280;38656;54.260;20.822;2024-03-25T10:55:27;99686.84;;;13.24;100.00
52777;BME280;38656;54.260;20.822;2024-03-25T10:57:55;99682.03;;;15.34;100.00
52777;BME280;38656;54.260;20.822;2024-03-25T11:00:22;99683.81;;;16.80;100.00
52777;BME280;38656;54.260;20.822;2024-03-25T11:02:49;99695.72;;;14.33;100.00
52777;BME280;38656;54.260;20.822;2024-03-25T11:05:17;99693.28;;;15.44;100.00
52777;BME280;38656;54.260;20.822;2024-03-25T11:07:43;99686.75;;;15.86;100.00
52777;BME280;38656;54.260;20.822;2024-03-25T11:10:10;99690.13;;;16.79;100.00
52777;BME280;38656;54.260;20.822;2024-03-25T11:12:38;99690.16;;;15.72;100.00
52777;BME280;38656;54.260;20.822;2024-03-25T11:15:06;99695.38;;;14.04;100.00
52777;BME280;38656;54.260;20.822;2024-03-25T11:17:36;99696.16;;;15.97;100.00
52777;BME280;38656;54.260;20.822;2024-03-25T11:20:10;99693.34;;;16.22;100.00
52777;BME280;38656;54.260;20.822;2024-03-25T11:22:48;99692.63;;;16.81;100.00
52777;BME280;38656;54.260;20.822;2024-03-25T11:25:14;99707.13;;;14.75;100.00
52777;BME280;38656;54.260;20.822;2024-03-25T11:27:43;99695.31;;;17.26;100.00
52777;BME280;38656;54.260;20.822;2024-03-25T11:30:14;99697.19;;;14.52;100.00
52777;BME280;38656;54.260;20.822;2024-03-25T11:33:01;99685.22;;;17.06;99.44
52777;BME280;38656;54.260;20.822;2024-03-25T11:35:27;99699.69;;;14.29;100.00
52777;BME280;38656;54.260;20.822;2024-03-25T11:37:54;99692.84;;;13.00;100.00
52777;BME280;38656;54.260;20.822;2024-03-25T11:40:20;99694.47;;;12.59;100.00
52777;BME280;38656;54.260;20.822;2024-03-25T11:42:47;99688.91;;;15.20;100.00
52777;BME280;38656;54.260;20.822;2024-03-25T11:45:18;99698.56;;;12.35;100.00
52777;BME280;38656;54.260;20.822;2024-03-25T11:47:46;99703.25;;;11.41;100.00
52777;BME280;38656;54.260;20.822;2024-03-25T11:50:14;99697.25;;;12.57;100.00
52777;BME280;38656;54.260;20.822;2024-03-25T11:52:41;99696.72;;;11.81;100.00
52777;BME280;38656;54.260;20.822;2024-03-25T11:55:08;99695.38;;;14.04;100.00
52777;BME280;38656;54.260;20.822;2024-03-25T11:57:36;99697.63;;;14.97;100.00
52777;BME280;38656;54.260;20.822;2024-03-25T12:00:03;99694.31;;;14.87;100.00
52777;BME280;38656;54.260;20.822;2024-03-25T12:02:33;99694.06;;;14.24;100.00
52777;BME280;38656;54.260;20.822;2024-03-25T12:04:59;99697.22;;;11.95;100.00
52777;BME280;38656;54.260;20.822;2024-03-25T12:07:25;99697.69;;;12.08;100.00
52777;BME280;38656;54.260;20.822;2024-03-25T12:09:51;99692.31;;;13.66;100.00
52777;BME280;38656;54.260;20.822;2024-03-25T12:12:36;99697.28;;;13.60;100.00
52777;BME280;38656;54.260;20.822;2024-03-25T12:15:05;99697.34;;;14.18;100.00
52777;BME280;38656;54.260;20.822;2024-03-25T12:17:33;99704.34;;;12.12;100.00
52777;BME280;38656;54.260;20.822;2024-03-25T12:22:27;99701.72;;;11.39;100.00
52777;BME280;38656;54.260;20.822;2024-03-25T12:24:53;99705.94;;;13.28;100.00
52777;BME280;38656;54.260;20.822;2024-03-25T12:27:22;99697.38;;;12.29;100.00
52777;BME280;38656;54.260;20.822;2024-03-25T12:30:01;99705.22;;;12.91;100.00
52777;BME280;38656;54.260;20.822;2024-03-25T12:32:38;99702.50;;;13.36;100.00
52777;BME280;38656;54.260;20.822;2024-03-25T12:35:08;99706.03;;;13.18;100.00
52777;BME280;38656;54.260;20.822;2024-03-25T12:37:35;99704.00;;;12.51;100.00
52777;BME280;38656;54.260;20.822;2024-03-25T12:40:02;99703.69;;;12.81;100.00
52777;BME280;38656;54.260;20.822;2024-03-25T12:42:28;99702.78;;;11.92;100.00
52777;BME280;38656;54.260;20.822;2024-03-25T12:44:55;99706.44;;;12.09;100.00
52777;BME280;38656;54.260;20.822;2024-03-25T12:47:22;99714.59;;;11.51;100.00
52777;BME280;38656;54.260;20.822;2024-03-25T12:49:48;99714.00;;;12.21;100.00
52777;BME280;38656;54.260;20.822;2024-03-25T12:52:14;99721.50;;;11.34;100.00